Time;durP1;ratioP1;P1;durP2;ratioP2;P2;SDS_P1;SDS_P2;PMS_P1;PMS_P2;Temp;Humidity;BMP_temperature;BMP_pressure;BME280_temperature;BME280_humidity;BME280_pressure;Samples;Min_cycle;Max_cycle;Signal;HPM_P1;HPM_P2
2022/03/08 00:00:35;;;;;;;;;;;3.70;77.80;;;;;;5093491;28;19957;-64
2022/03/08 00:03:01;;;;;;;;;;;3.70;77.90;;;;;;5093947;28;20003;-67
2022/03/08 00:05:26;;;;;;;;;;;3.60;78.10;;;;;;5074976;28;20356;-65
2022/03/08 00:07:52;;;;;;;;;;;3.60;78.40;;;;;;5093879;28;19908;-66
2022/03/08 00:10:19;;;;;;;;;;;3.70;78.30;;;;;;5093704;28;19912;-63
2022/03/08 00:12:46;;;;;;;;;;;3.70;78.50;;;;;;5093654;28;19999;-62
2022/03/08 00:15:13;;;;;;;;;;;3.70;78.70;;;;;;5093204;28;19915;-63
2022/03/08 00:17:39;;;;;;;;;;;3.70;78.60;;;;;;5074939;28;20362;-63
2022/03/08 00:20:06;;;;;;;;;;;3.70;78.50;;;;;;5093900;28;19997;-64
2022/03/08 00:22:33;;;;;;;;;;;3.50;79.10;;;;;;5092711;28;19970;-64
2022/03/08 00:25:01;;;;;;;;;;;3.40;79.90;;;;;;5093069;28;19924;-63
2022/03/08 00:27:30;;;;;;;;;;;3.50;80.10;;;;;;5096312;28;19909;-63
2022/03/08 00:29:56;;;;;;;;;;;3.50;80.20;;;;;;5078662;28;19912;-65
2022/03/08 00:32:22;;;;;;;;;;;3.40;80.80;;;;;;5096634;28;20369;-64
2022/03/08 00:34:47;;;;;;;;;;;3.30;81.00;;;;;;5096927;28;19912;-63
2022/03/08 00:37:13;;;;;;;;;;;3.40;81.00;;;;;;5096730;28;19915;-64
2022/03/08 00:39:38;;;;;;;;;;;3.50;80.70;;;;;;5095814;28;19908;-64
2022/03/08 00:42:04;;;;;;;;;;;3.40;81.10;;;;;;5096371;28;20353;-63
2022/03/08 00:44:29;;;;;;;;;;;3.40;80.90;;;;;;5096278;28;19908;-63
2022/03/08 00:46:55;;;;;;;;;;;3.40;81.40;;;;;;5096247;28;20226;-63
2022/03/08 00:49:21;;;;;;;;;;;3.40;81.40;;;;;;5097020;28;19916;-63
2022/03/08 00:51:46;;;;;;;;;;;3.30;81.90;;;;;;5096507;28;20292;-64
2022/03/08 00:54:12;;;;;;;;;;;3.40;81.80;;;;;;5096604;28;19913;-64
2022/03/08 00:56:37;;;;;;;;;;;3.30;82.10;;;;;;5096202;28;19923;-63
2022/03/08 00:59:03;;;;;;;;;;;3.20;82.60;;;;;;5078191;28;19916;-64
2022/03/08 01:01:29;;;;;;;;;;;3.20;83.30;;;;;;5095707;28;20288;-67
2022/03/08 01:03:54;;;;;;;;;;;3.20;83.10;;;;;;5078213;28;19908;-65
2022/03/08 01:06:20;;;;;;;;;;;3.30;83.10;;;;;;5096422;28;20361;-65
2022/03/08 01:08:45;;;;;;;;;;;3.10;83.40;;;;;;5096351;28;19908;-63
2022/03/08 01:11:11;;;;;;;;;;;3.10;83.70;;;;;;5098626;28;19912;-63
2022/03/08 01:13:36;;;;;;;;;;;3.20;84.00;;;;;;5078938;28;20014;-63
2022/03/08 01:16:02;;;;;;;;;;;3.10;84.70;;;;;;5096218;28;19908;-63
2022/03/08 01:18:27;;;;;;;;;;;3.10;84.30;;;;;;5095433;28;19914;-63
2022/03/08 01:20:53;;;;;;;;;;;3.10;84.90;;;;;;5095623;28;20276;-63
2022/03/08 01:23:18;;;;;;;;;;;2.90;85.30;;;;;;5095963;28;20003;-63
2022/03/08 01:25:44;;;;;;;;;;;2.90;85.90;;;;;;5095600;28;19935;-67
2022/03/08 01:28:09;;;;;;;;;;;2.90;86.50;;;;;;5095514;28;20357;-63
2022/03/08 01:30:35;;;;;;;;;;;2.90;86.80;;;;;;5077048;28;19954;-63
2022/03/08 01:33:00;;;;;;;;;;;2.90;87.20;;;;;;5095967;28;19966;-63
2022/03/08 01:35:26;;;;;;;;;;;2.80;87.30;;;;;;5076943;28;19943;-64
2022/03/08 01:37:52;;;;;;;;;;;2.70;87.60;;;;;;5094739;28;19915;-64
2022/03/08 01:40:18;;;;;;;;;;;2.60;88.20;;;;;;5095573;28;20289;-64
2022/03/08 01:42:46;;;;;;;;;;;2.70;88.30;;;;;;5095375;28;19908;-63
2022/03/08 01:45:12;;;;;;;;;;;2.70;88.60;;;;;;5096358;28;20018;-69
2022/03/08 01:47:37;;;;;;;;;;;2.70;88.70;;;;;;5096189;28;20377;-64
2022/03/08 01:50:04;;;;;;;;;;;2.60;88.80;;;;;;5095749;28;19912;-63
2022/03/08 01:52:29;;;;;;;;;;;2.70;88.80;;;;;;5076885;28;19922;-66
2022/03/08 01:54:55;;;;;;;;;;;2.70;88.80;;;;;;5095823;28;19912;-65
2022/03/08 01:57:23;;;;;;;;;;;2.70;89.00;;;;;;5096678;28;19959;-76
2022/03/08 01:59:49;;;;;;;;;;;2.60;89.30;;;;;;5096084;28;20238;-69
2022/03/08 02:02:15;;;;;;;;;;;2.70;89.40;;;;;;5096373;28;19962;-67
2022/03/08 02:04:40;;;;;;;;;;;2.70;89.60;;;;;;5077935;28;20007;-63
2022/03/08 02:07:07;;;;;;;;;;;2.70;89.50;;;;;;5096388;28;19912;-69
2022/03/08 02:09:33;;;;;;;;;;;2.80;89.40;;;;;;5094957;28;19955;-64
2022/03/08 02:11:58;;;;;;;;;;;2.80;89.10;;;;;;5095435;28;19919;-65
2022/03/08 02:14:26;;;;;;;;;;;2.70;89.10;;;;;;5096239;28;19937;-64
2022/03/08 02:16:51;;;;;;;;;;;2.70;89.10;;;;;;5096456;28;19908;-69
2022/03/08 02:19:17;;;;;;;;;;;2.80;89.30;;;;;;5077279;28;20042;-64
2022/03/08 02:21:43;;;;;;;;;;;2.80;89.30;;;;;;5076281;28;19991;-63
2022/03/08 02:24:08;;;;;;;;;;;2.80;89.40;;;;;;5095294;28;20409;-64
2022/03/08 02:26:34;;;;;;;;;;;2.80;89.50;;;;;;5094861;28;19919;-67
2022/03/08 02:29:00;;;;;;;;;;;2.70;89.70;;;;;;5094801;28;19908;-65
2022/03/08 02:31:26;;;;;;;;;;;2.80;89.70;;;;;;5076263;28;20284;-66
2022/03/08 02:33:51;;;;;;;;;;;2.80;89.70;;;;;;5094157;28;20003;-64
2022/03/08 02:36:17;;;;;;;;;;;2.70;89.90;;;;;;5076551;28;20004;-64
2022/03/08 02:38:43;;;;;;;;;;;2.80;90.00;;;;;;5094311;28;19908;-64
2022/03/08 02:41:08;;;;;;;;;;;2.80;90.00;;;;;;5076470;28;19912;-63
2022/03/08 02:43:34;;;;;;;;;;;2.80;89.60;;;;;;5093839;28;19909;-63
2022/03/08 02:45:59;;;;;;;;;;;2.70;90.00;;;;;;5094666;28;19908;-63
2022/03/08 02:48:25;;;;;;;;;;;2.80;90.00;;;;;;5094570;28;19908;-64
2022/03/08 02:50:51;;;;;;;;;;;2.70;90.20;;;;;;5075635;28;19939;-65
2022/03/08 02:53:16;;;;;;;;;;;2.80;90.10;;;;;;5094447;28;19916;-64
2022/03/08 02:55:42;;;;;;;;;;;2.70;90.20;;;;;;5094210;28;20311;-63
2022/03/08 02:58:07;;;;;;;;;;;2.60;90.30;;;;;;5095191;28;19912;-64
2022/03/08 03:00:33;;;;;;;;;;;2.60;90.40;;;;;;5093673;28;20038;-66
2022/03/08 03:02:59;;;;;;;;;;;2.60;90.50;;;;;;5075841;28;19915;-63
2022/03/08 03:05:25;;;;;;;;;;;2.70;90.40;;;;;;5094324;28;19934;-64
2022/03/08 03:07:50;;;;;;;;;;;2.60;90.60;;;;;;5075371;28;19924;-65
2022/03/08 03:10:17;;;;;;;;;;;2.60;90.80;;;;;;5075592;28;19916;-63
2022/03/08 03:12:43;;;;;;;;;;;2.60;90.70;;;;;;5092945;28;19912;-63
2022/03/08 03:15:10;;;;;;;;;;;2.60;90.90;;;;;;5093858;28;19954;-67
2022/03/08 03:17:35;;;;;;;;;;;2.60;90.90;;;;;;5075175;28;19951;-63
2022/03/08 03:20:01;;;;;;;;;;;2.60;90.80;;;;;;5093908;28;19955;-64
2022/03/08 03:22:27;;;;;;;;;;;2.60;90.70;;;;;;5079045;28;19912;-63
2022/03/08 03:24:52;;;;;;;;;;;2.60;90.70;;;;;;5076136;28;19978;-63
2022/03/08 03:27:18;;;;;;;;;;;2.60;90.70;;;;;;5077636;28;19961;-64
2022/03/08 03:29:43;;;;;;;;;;;2.60;90.70;;;;;;5075757;28;20003;-66
2022/03/08 03:32:09;;;;;;;;;;;2.50;91.00;;;;;;5095651;28;19918;-63
2022/03/08 03:34:34;;;;;;;;;;;2.40;91.10;;;;;;5094214;28;20323;-66
2022/03/08 03:37:00;;;;;;;;;;;2.40;91.30;;;;;;5093828;28;19919;-66
2022/03/08 03:39:26;;;;;;;;;;;2.40;91.60;;;;;;5076423;28;19908;-63
2022/03/08 03:41:51;;;;;;;;;;;2.40;91.60;;;;;;5094011;28;20080;-65
2022/03/08 03:44:23;;;;;;;;;;;2.30;91.80;;;;;;5076525;28;20293;-65
2022/03/08 03:46:49;;;;;;;;;;;2.30;91.80;;;;;;5078307;28;20397;-63
2022/03/08 03:49:15;;;;;;;;;;;2.30;91.70;;;;;;5093727;28;19973;-65
2022/03/08 03:51:41;;;;;;;;;;;2.30;91.90;;;;;;5092965;28;19951;-64
2022/03/08 03:54:07;;;;;;;;;;;2.20;92.10;;;;;;5094142;28;19916;-65
2022/03/08 03:56:32;;;;;;;;;;;2.30;91.90;;;;;;5093585;28;19938;-71
2022/03/08 03:58:58;;;;;;;;;;;2.50;91.60;;;;;;5076051;28;19908;-63
2022/03/08 04:01:24;;;;;;;;;;;2.30;91.70;;;;;;5096998;28;20312;-66
2022/03/08 04:03:51;;;;;;;;;;;2.40;91.80;;;;;;5099531;28;19912;-67
2022/03/08 04:06:17;;;;;;;;;;;2.40;91.60;;;;;;5098385;28;19908;-64
2022/03/08 04:08:43;;;;;;;;;;;2.40;91.80;;;;;;5097622;28;20330;-66
2022/03/08 04:11:09;;;;;;;;;;;2.40;91.60;;;;;;5098866;28;19912;-72
2022/03/08 04:13:35;;;;;;;;;;;2.40;91.60;;;;;;5098409;28;19912;-68
2022/03/08 04:16:00;;;;;;;;;;;2.40;91.70;;;;;;5099379;28;19912;-67
2022/03/08 04:18:26;;;;;;;;;;;2.40;91.80;;;;;;5098690;28;19908;-64
2022/03/08 04:20:52;;;;;;;;;;;2.30;91.90;;;;;;5097532;28;19908;-63
2022/03/08 04:23:18;;;;;;;;;;;2.30;92.00;;;;;;5079567;28;19922;-71
2022/03/08 04:25:44;;;;;;;;;;;2.30;92.00;;;;;;5078417;28;20276;-64
2022/03/08 04:28:13;;;;;;;;;;;2.50;91.80;;;;;;5097355;28;19908;-64
2022/03/08 04:30:40;;;;;;;;;;;2.40;91.80;;;;;;5096394;28;19912;-64
2022/03/08 04:33:05;;;;;;;;;;;2.40;92.00;;;;;;5079137;28;19919;-63
2022/03/08 04:35:32;;;;;;;;;;;2.50;91.50;;;;;;5079172;28;19930;-64
2022/03/08 04:38:01;;;;;;;;;;;2.40;91.60;;;;;;5096813;28;19994;-65
2022/03/08 04:40:27;;;;;;;;;;;2.30;92.10;;;;;;5078973;28;19969;-64
2022/03/08 04:42:54;;;;;;;;;;;2.30;92.00;;;;;;5096322;28;19912;-64
2022/03/08 04:45:20;;;;;;;;;;;2.20;92.30;;;;;;5078729;28;19915;-64
2022/03/08 04:47:50;;;;;;;;;;;2.20;92.10;;;;;;5096118;28;19915;-64
2022/03/08 04:50:16;;;;;;;;;;;2.10;92.20;;;;;;5078600;28;19955;-66
2022/03/08 04:52:44;;;;;;;;;;;2.20;92.70;;;;;;5077774;28;19984;-64
2022/03/08 04:55:17;;;;;;;;;;;2.20;92.30;;;;;;5096304;28;19935;-64
2022/03/08 04:57:43;;;;;;;;;;;2.10;92.50;;;;;;5095882;28;19931;-65
2022/03/08 05:00:14;;;;;;;;;;;2.00;92.70;;;;;;5078240;28;20357;-64
2022/03/08 05:02:46;;;;;;;;;;;2.00;92.90;;;;;;5077681;28;19908;-66
2022/03/08 05:05:12;;;;;;;;;;;2.10;92.80;;;;;;5096923;28;19954;-63
2022/03/08 05:07:38;;;;;;;;;;;2.00;92.70;;;;;;5078006;28;19912;-68
2022/03/08 05:10:09;;;;;;;;;;;2.10;92.80;;;;;;5096934;28;19919;-63
2022/03/08 05:12:35;;;;;;;;;;;2.10;92.70;;;;;;5077367;28;19912;-64
2022/03/08 05:15:01;;;;;;;;;;;2.20;92.60;;;;;;5097256;28;19912;-68
2022/03/08 05:17:35;;;;;;;;;;;2.10;92.70;;;;;;5078499;28;20308;-64
2022/03/08 05:20:08;;;;;;;;;;;2.20;92.80;;;;;;5095697;28;19918;-64
2022/03/08 05:22:40;;;;;;;;;;;2.10;92.90;;;;;;5095113;28;19918;-71
2022/03/08 05:25:07;;;;;;;;;;;2.10;92.90;;;;;;5074982;28;19948;-66
2022/03/08 05:27:34;;;;;;;;;;;2.00;92.90;;;;;;5076717;28;19909;-65
2022/03/08 05:30:02;;;;;;;;;;;2.00;93.00;;;;;;5075897;28;19919;-63
2022/03/08 05:32:27;;;;;;;;;;;2.10;92.90;;;;;;5076780;28;19919;-67
2022/03/08 05:34:53;;;;;;;;;;;2.10;92.90;;;;;;5077927;28;19909;-64
2022/03/08 05:37:23;;;;;;;;;;;2.10;93.00;;;;;;5077552;28;20289;-64
2022/03/08 05:39:51;;;;;;;;;;;2.10;93.00;;;;;;5074513;28;19960;-67
2022/03/08 05:42:16;;;;;;;;;;;2.00;93.20;;;;;;5075795;28;20362;-66
2022/03/08 05:44:56;;;;;;;;;;;2.00;93.20;;;;;;5075318;28;19916;-65
2022/03/08 05:47:24;;;;;;;;;;;2.10;93.20;;;;;;5075789;28;19948;-64
2022/03/08 05:49:57;;;;;;;;;;;2.20;93.00;;;;;;5075397;28;19995;-64
2022/03/08 05:52:28;;;;;;;;;;;2.10;92.90;;;;;;5073804;28;19969;-66
2022/03/08 05:55:10;;;;;;;;;;;2.10;92.90;;;;;;5074610;28;19935;-64
2022/03/08 05:57:47;;;;;;;;;;;2.10;92.80;;;;;;5073987;28;19950;-73
2022/03/08 06:00:24;;;;;;;;;;;2.10;93.70;;;;;;5077147;28;19956;-68
2022/03/08 06:02:51;;;;;;;;;;;2.00;93.20;;;;;;5074679;28;19998;-66
2022/03/08 06:05:22;;;;;;;;;;;1.90;93.30;;;;;;5074065;28;20320;-64
2022/03/08 06:07:59;;;;;;;;;;;2.00;93.20;;;;;;5074864;28;19908;-66
2022/03/08 06:10:24;;;;;;;;;;;2.00;93.20;;;;;;5068148;28;19923;-66
2022/03/08 06:12:56;;;;;;;;;;;1.80;93.30;;;;;;5071887;28;19952;-65
2022/03/08 06:15:23;;;;;;;;;;;1.80;93.40;;;;;;5070283;28;19917;-67
2022/03/08 06:17:49;;;;;;;;;;;2.80;98.70;;;;;;5053872;28;20005;-67
2022/03/08 06:20:16;;;;;;;;;;;2.60;95.20;;;;;;5054076;28;19948;-65
2022/03/08 06:22:42;;;;;;;;;;;2.30;94.80;;;;;;5065455;28;19916;-63
2022/03/08 06:25:09;;;;;;;;;;;2.20;94.70;;;;;;5086494;28;19924;-64
2022/03/08 06:27:39;;;;;;;;;;;2.20;94.80;;;;;;5074545;28;19954;-68
2022/03/08 06:30:08;;;;;;;;;;;2.10;94.90;;;;;;5094054;28;19912;-65
2022/03/08 06:32:44;;;;;;;;;;;2.10;94.90;;;;;;5073931;28;19912;-64
2022/03/08 06:35:19;;;;;;;;;;;2.10;94.80;;;;;;5087086;28;20208;-63
2022/03/08 06:37:48;;;;;;;;;;;2.20;94.60;;;;;;5073657;28;19958;-74
2022/03/08 06:40:18;;;;;;;;;;;2.40;94.40;;;;;;5082567;28;19912;-65
2022/03/08 06:42:45;;;;;;;;;;;2.50;94.10;;;;;;5084371;28;19999;-66
2022/03/08 06:45:24;;;;;;;;;;;2.50;93.80;;;;;;5068891;28;19912;-65
2022/03/08 06:48:01;;;;;;;;;;;2.50;93.80;;;;;;5061440;28;19908;-66
2022/03/08 06:50:31;;;;;;;;;;;2.40;93.80;;;;;;5067811;28;19916;-66
2022/03/08 06:52:57;;;;;;;;;;;2.60;93.60;;;;;;5094165;28;19916;-64
2022/03/08 06:55:23;;;;;;;;;;;2.80;93.30;;;;;;5077232;28;19919;-64
2022/03/08 06:57:50;;;;;;;;;;;2.90;93.10;;;;;;5075814;28;19914;-65
2022/03/08 07:00:25;;;;;;;;;;;3.10;92.70;;;;;;5075791;28;19911;-64
2022/03/08 07:02:50;;;;;;;;;;;3.50;91.90;;;;;;5075935;28;19912;-66
2022/03/08 07:05:16;;;;;;;;;;;3.90;91.20;;;;;;5076910;28;19957;-63
2022/03/08 07:07:41;;;;;;;;;;;4.10;90.50;;;;;;5076726;28;20272;-65
2022/03/08 07:10:07;;;;;;;;;;;4.40;89.70;;;;;;5076487;28;20319;-72
2022/03/08 07:12:33;;;;;;;;;;;4.40;89.20;;;;;;5095459;28;19912;-63
2022/03/08 07:14:58;;;;;;;;;;;4.60;95.20;;;;;;5088814;28;19959;-64
2022/03/08 07:17:24;;;;;;;;;;;5.40;98.20;;;;;;5073696;28;19909;-64
2022/03/08 07:19:49;;;;;;;;;;;5.80;89.30;;;;;;5073346;28;20277;-63
2022/03/08 07:22:17;;;;;;;;;;;5.70;86.30;;;;;;5082306;28;20056;-64
2022/03/08 07:24:42;;;;;;;;;;;5.70;85.10;;;;;;5081646;28;20385;-64
2022/03/08 07:27:08;;;;;;;;;;;6.00;83.50;;;;;;5067405;28;19972;-63
2022/03/08 07:29:34;;;;;;;;;;;6.40;83.00;;;;;;5085359;28;19908;-67
2022/03/08 07:32:00;;;;;;;;;;;6.50;81.30;;;;;;5062547;28;19928;-65
2022/03/08 07:34:25;;;;;;;;;;;6.70;79.90;;;;;;5083139;28;19912;-62
2022/03/08 07:36:51;;;;;;;;;;;7.10;78.60;;;;;;5087371;28;19916;-65
2022/03/08 07:39:16;;;;;;;;;;;7.00;77.30;;;;;;5084463;28;20411;-65
2022/03/08 07:41:42;;;;;;;;;;;6.90;77.20;;;;;;5083678;28;19913;-65
2022/03/08 07:44:08;;;;;;;;;;;7.10;77.10;;;;;;5063590;28;20373;-65
2022/03/08 07:46:33;;;;;;;;;;;7.20;76.50;;;;;;5069768;28;19938;-68
2022/03/08 07:48:59;;;;;;;;;;;7.50;76.00;;;;;;5058188;28;19909;-64
2022/03/08 07:51:25;;;;;;;;;;;7.60;75.00;;;;;;5072442;28;19942;-70
2022/03/08 07:53:51;;;;;;;;;;;7.50;75.10;;;;;;5076222;28;19959;-70
2022/03/08 07:56:16;;;;;;;;;;;7.70;74.80;;;;;;5094510;28;20007;-68
2022/03/08 07:58:42;;;;;;;;;;;7.80;74.20;;;;;;5065470;28;19919;-65
2022/03/08 08:01:07;;;;;;;;;;;7.50;74.30;;;;;;5081693;28;20143;-66
2022/03/08 08:03:33;;;;;;;;;;;7.80;75.00;;;;;;5081630;28;19908;-70
2022/03/08 08:05:59;;;;;;;;;;;8.30;73.50;;;;;;5072966;28;19908;-72
2022/03/08 08:08:24;;;;;;;;;;;8.40;72.90;;;;;;5073977;28;19908;-66
2022/03/08 08:10:50;;;;;;;;;;;8.70;72.10;;;;;;5076000;28;20014;-64
2022/03/08 08:13:15;;;;;;;;;;;8.90;72.00;;;;;;5070195;28;19918;-64
2022/03/08 08:15:42;;;;;;;;;;;;;;;;;;5084228;28;19912;-73
2022/03/08 08:18:07;;;;;;;;;;;9.30;88.20;;;;;;5081092;28;19919;-65
2022/03/08 08:20:33;;;;;;;;;;;9.70;82.20;;;;;;5083650;28;20007;-65
2022/03/08 08:22:58;;;;;;;;;;;9.70;73.60;;;;;;5088170;28;19987;-63
2022/03/08 08:25:24;;;;;;;;;;;10.20;72.00;;;;;;5070525;28;19924;-64
2022/03/08 08:27:50;;;;;;;;;;;10.40;69.30;;;;;;5081659;28;20422;-68
2022/03/08 08:30:15;;;;;;;;;;;11.10;88.90;;;;;;5057340;28;19913;-66
2022/03/08 08:32:41;;;;;;;;;;;11.10;71.80;;;;;;5075171;28;20395;-67
2022/03/08 08:35:07;;;;;;;;;;;11.00;71.70;;;;;;5073863;28;20022;-77
2022/03/08 08:37:33;;;;;;;;;;;11.30;70.30;;;;;;5085405;28;20379;-66
2022/03/08 08:39:58;;;;;;;;;;;11.60;68.70;;;;;;5086953;28;19999;-66
2022/03/08 08:42:24;;;;;;;;;;;11.80;66.60;;;;;;5083138;28;19919;-64
2022/03/08 08:44:50;;;;;;;;;;;11.30;65.40;;;;;;5077984;28;19912;-74
2022/03/08 08:47:15;;;;;;;;;;;11.00;67.50;;;;;;5078846;28;19908;-68
2022/03/08 08:49:41;;;;;;;;;;;10.80;67.40;;;;;;5098783;28;19934;-66
2022/03/08 08:52:06;;;;;;;;;;;10.10;68.50;;;;;;5070700;28;19916;-66
2022/03/08 08:54:32;;;;;;;;;;;10.30;67.60;;;;;;5094263;28;19996;-66
2022/03/08 08:56:57;;;;;;;;;;;10.10;68.30;;;;;;5097431;28;19908;-67
2022/03/08 08:59:23;;;;;;;;;;;10.00;69.00;;;;;;5089872;28;19908;-68
2022/03/08 09:01:48;;;;;;;;;;;10.70;68.00;;;;;;5087758;28;19909;-67
2022/03/08 09:04:14;;;;;;;;;;;11.20;66.70;;;;;;5089265;28;19960;-63
2022/03/08 09:06:40;;;;;;;;;;;11.50;65.70;;;;;;5096242;28;19908;-64
2022/03/08 09:09:05;;;;;;;;;;;11.10;65.70;;;;;;5096891;28;20023;-68
2022/03/08 09:11:31;;;;;;;;;;;11.60;66.10;;;;;;5076195;28;19923;-65
2022/03/08 09:13:58;;;;;;;;;;;12.20;64.50;;;;;;5060138;28;19944;-66
2022/03/08 09:16:24;;;;;;;;;;;12.60;91.60;;;;;;5076071;28;19970;-63
2022/03/08 09:18:50;;;;;;;;;;;13.30;96.00;;;;;;5097983;28;19908;-66
2022/03/08 09:21:15;;;;;;;;;;;13.60;96.30;;;;;;5079940;28;20338;-63
2022/03/08 09:23:41;;;;;;;;;;;13.50;86.40;;;;;;5097880;28;19912;-64
2022/03/08 09:26:07;;;;;;;;;;;14.40;93.90;;;;;;5087304;28;20274;-64
2022/03/08 09:28:33;;;;;;;;;;;14.50;79.60;;;;;;5093951;28;19923;-64
2022/03/08 09:31:01;;;;;;;;;;;14.30;88.40;;;;;;5067111;28;19962;-65
2022/03/08 09:33:27;;;;;;;;;;;14.60;68.40;;;;;;5059652;28;19932;-63
2022/03/08 09:35:53;;;;;;;;;;;12.40;65.00;;;;;;5084596;28;19912;-75
2022/03/08 09:38:19;;;;;;;;;;;12.20;65.00;;;;;;5073901;28;20281;-63
2022/03/08 09:40:44;;;;;;;;;;;12.00;65.60;;;;;;5075533;28;20288;-63
2022/03/08 09:43:10;;;;;;;;;;;12.70;64.30;;;;;;5073363;28;19909;-64
2022/03/08 09:45:36;;;;;;;;;;;12.70;63.70;;;;;;5088295;28;19916;-63
2022/03/08 09:48:02;;;;;;;;;;;13.10;63.20;;;;;;5087034;28;19954;-64
2022/03/08 09:50:29;;;;;;;;;;;12.60;63.60;;;;;;5074020;28;19995;-64
2022/03/08 09:52:56;;;;;;;;;;;12.80;62.80;;;;;;5074498;28;20265;-70
2022/03/08 09:55:23;;;;;;;;;;;11.40;64.00;;;;;;5057011;28;19917;-65
2022/03/08 09:57:48;;;;;;;;;;;12.00;64.60;;;;;;5074459;28;19909;-64
2022/03/08 10:00:14;;;;;;;;;;;12.40;63.10;;;;;;5074692;28;19973;-64
2022/03/08 10:02:40;;;;;;;;;;;11.70;63.00;;;;;;5075421;28;19908;-64
2022/03/08 10:05:06;;;;;;;;;;;11.70;63.60;;;;;;5074120;28;19999;-67
2022/03/08 10:07:32;;;;;;;;;;;12.90;62.00;;;;;;5057412;28;19989;-65
2022/03/08 10:09:58;;;;;;;;;;;12.40;61.70;;;;;;5068660;28;20003;-64
2022/03/08 10:12:24;;;;;;;;;;;11.60;62.80;;;;;;5088456;28;20358;-66
2022/03/08 10:14:50;;;;;;;;;;;11.00;62.90;;;;;;5057478;28;20019;-64
2022/03/08 10:17:35;;;;;;;;;;;11.10;64.40;;;;;;5074903;28;19912;-68
2022/03/08 10:20:00;;;;;;;;;;;11.00;63.60;;;;;;5074488;28;20343;-65
2022/03/08 10:22:31;;;;;;;;;;;11.00;63.80;;;;;;5074692;28;19947;-64
2022/03/08 10:25:10;;;;;;;;;;;10.60;64.90;;;;;;5073935;28;19955;-71
2022/03/08 10:27:36;;;;;;;;;;;10.70;64.50;;;;;;5083805;28;20262;-64
2022/03/08 10:30:01;;;;;;;;;;;11.10;64.30;;;;;;5079300;28;20064;-66
2022/03/08 10:32:35;;;;;;;;;;;11.50;63.40;;;;;;5063028;28;19912;-71
2022/03/08 10:35:01;;;;;;;;;;;11.10;63.70;;;;;;5092322;28;20003;-65
2022/03/08 10:37:35;;;;;;;;;;;11.60;64.10;;;;;;5094821;28;19908;-65
2022/03/08 10:40:02;;;;;;;;;;;12.60;61.50;;;;;;5094391;28;19958;-70
2022/03/08 10:42:29;;;;;;;;;;;12.30;61.30;;;;;;5095119;28;19915;-67
2022/03/08 10:45:05;;;;;;;;;;;12.60;60.70;;;;;;5094497;28;19908;-65
2022/03/08 10:47:37;;;;;;;;;;;13.90;59.40;;;;;;5094360;28;19947;-65
2022/03/08 10:50:03;;;;;;;;;;;12.70;60.00;;;;;;5093550;28;20003;-66
2022/03/08 10:52:30;;;;;;;;;;;13.00;60.80;;;;;;5093315;28;19993;-67
2022/03/08 10:55:14;;;;;;;;;;;13.50;60.80;;;;;;5075857;28;19934;-65
2022/03/08 10:57:40;;;;;;;;;;;13.70;58.90;;;;;;5093914;28;19912;-65
2022/03/08 11:00:11;;;;;;;;;;;13.50;58.40;;;;;;5074688;28;20011;-64
2022/03/08 11:02:57;;;;;;;;;;;12.40;59.10;;;;;;5075456;28;19912;-64
2022/03/08 11:05:24;;;;;;;;;;;12.50;60.00;;;;;;5074278;28;20258;-64
2022/03/08 11:07:50;;;;;;;;;;;12.80;59.60;;;;;;5093862;28;19953;-65
2022/03/08 11:10:16;;;;;;;;;;;13.10;58.90;;;;;;5075076;28;20007;-65
2022/03/08 11:12:42;;;;;;;;;;;13.90;58.20;;;;;;5093590;28;20402;-64
2022/03/08 11:15:08;;;;;;;;;;;14.50;57.60;;;;;;5073280;28;19996;-66
2022/03/08 11:17:35;;;;;;;;;;;14.90;56.70;;;;;;5073485;28;19916;-65
2022/03/08 11:20:05;;;;;;;;;;;15.90;56.40;;;;;;5090864;28;20256;-68
2022/03/08 11:22:31;;;;;;;;;;;16.00;54.50;;;;;;5073740;28;19908;-64
2022/03/08 11:24:56;;;;;;;;;;;13.60;56.70;;;;;;5069423;28;19950;-65
2022/03/08 11:27:22;;;;;;;;;;;14.50;56.70;;;;;;5069713;28;20318;-65
2022/03/08 11:29:51;;;;;;;;;;;13.40;55.80;;;;;;5072596;28;19924;-64
2022/03/08 11:32:19;;;;;;;;;;;13.50;55.10;;;;;;5072576;28;19920;-64
2022/03/08 11:34:47;;;;;;;;;;;13.80;53.90;;;;;;5073566;28;20007;-74
2022/03/08 11:37:15;;;;;;;;;;;13.90;53.60;;;;;;5072651;28;19951;-66
2022/03/08 11:39:43;;;;;;;;;;;13.80;53.90;;;;;;5072303;28;19912;-67
2022/03/08 11:42:30;;;;;;;;;;;14.40;52.80;;;;;;5071705;28;19913;-64
2022/03/08 11:45:19;;;;;;;;;;;14.10;54.40;;;;;;5072092;28;19994;-64
2022/03/08 11:47:56;;;;;;;;;;;13.50;54.80;;;;;;5062360;28;20434;-65
2022/03/08 11:50:21;;;;;;;;;;;13.80;53.30;;;;;;5071590;28;19931;-66
2022/03/08 11:52:51;;;;;;;;;;;13.50;53.30;;;;;;5071742;28;19917;-64
2022/03/08 11:55:23;;;;;;;;;;;12.70;54.60;;;;;;5072904;28;19920;-69
2022/03/08 11:57:53;;;;;;;;;;;13.20;53.60;;;;;;5072942;28;19931;-66
2022/03/08 12:00:21;;;;;;;;;;;13.10;53.80;;;;;;5073249;28;20388;-65
2022/03/08 12:02:48;;;;;;;;;;;12.70;54.30;;;;;;5072213;28;19909;-67
2022/03/08 12:05:32;;;;;;;;;;;12.40;54.30;;;;;;5071248;28;20369;-63
2022/03/08 12:08:18;;;;;;;;;;;13.50;54.70;;;;;;5071694;28;19989;-64
2022/03/08 12:10:43;;;;;;;;;;;14.10;53.10;;;;;;5072010;28;19912;-68
2022/03/08 12:13:11;;;;;;;;;;;14.30;52.40;;;;;;5071142;28;20362;-67
2022/03/08 12:15:56;;;;;;;;;;;14.40;53.40;;;;;;5073119;28;19915;-65
2022/03/08 12:18:32;;;;;;;;;;;13.50;52.80;;;;;;5071879;28;20381;-65
2022/03/08 12:21:17;;;;;;;;;;;13.70;53.00;;;;;;5073695;28;19920;-64
2022/03/08 12:23:52;;;;;;;;;;;14.40;52.40;;;;;;5077393;28;19955;-65
2022/03/08 12:26:26;;;;;;;;;;;13.40;53.30;;;;;;5096647;28;19958;-64
2022/03/08 12:29:07;;;;;;;;;;;13.80;53.00;;;;;;5079003;28;20329;-65
2022/03/08 12:31:33;;;;;;;;;;;14.10;52.80;;;;;;5096535;28;19934;-66
2022/03/08 12:34:00;;;;;;;;;;;14.50;52.80;;;;;;5078525;28;19912;-63
2022/03/08 12:36:29;;;;;;;;;;;15.00;51.90;;;;;;5078220;28;19977;-66
2022/03/08 12:38:54;;;;;;;;;;;13.90;53.10;;;;;;5096685;28;19962;-71
2022/03/08 12:41:24;;;;;;;;;;;14.20;53.10;;;;;;5078206;28;19908;-64
2022/03/08 12:44:00;;;;;;;;;;;14.60;52.60;;;;;;5096393;28;20049;-65
2022/03/08 12:46:26;;;;;;;;;;;14.30;52.50;;;;;;5094947;28;19912;-65
2022/03/08 12:48:52;;;;;;;;;;;14.80;52.40;;;;;;5094721;28;19976;-64
2022/03/08 12:51:20;;;;;;;;;;;16.20;51.20;;;;;;5093969;28;20369;-65
2022/03/08 12:53:48;;;;;;;;;;;14.10;51.50;;;;;;5077871;28;20310;-65
2022/03/08 12:56:14;;;;;;;;;;;15.00;51.40;;;;;;5095815;28;19920;-64
2022/03/08 12:58:40;;;;;;;;;;;14.50;51.70;;;;;;5096389;28;19915;-63
2022/03/08 13:01:06;;;;;;;;;;;14.30;50.70;;;;;;5096489;28;20361;-68
2022/03/08 13:03:34;;;;;;;;;;;13.50;51.60;;;;;;5079242;28;19908;-66
2022/03/08 13:06:00;;;;;;;;;;;13.20;52.40;;;;;;5097171;28;19908;-65
2022/03/08 13:08:27;;;;;;;;;;;13.20;52.20;;;;;;5077924;28;20548;-66
2022/03/08 13:11:00;;;;;;;;;;;13.30;52.10;;;;;;5096516;28;19912;-66
2022/03/08 13:13:25;;;;;;;;;;;13.60;51.90;;;;;;5095900;28;19918;-66
2022/03/08 13:15:51;;;;;;;;;;;13.30;52.20;;;;;;5095988;28;20349;-65
2022/03/08 13:18:21;;;;;;;;;;;13.70;51.90;;;;;;5094870;28;20373;-64
2022/03/08 13:20:48;;;;;;;;;;;14.50;51.90;;;;;;5095081;28;19933;-65
2022/03/08 13:23:15;;;;;;;;;;;15.10;51.30;;;;;;5093953;28;20352;-64
2022/03/08 13:25:41;;;;;;;;;;;14.50;50.50;;;;;;5095205;28;19924;-65
2022/03/08 13:28:14;;;;;;;;;;;14.00;51.20;;;;;;5077667;28;19908;-65
2022/03/08 13:30:47;;;;;;;;;;;14.30;51.20;;;;;;5095707;28;20053;-67
2022/03/08 13:33:18;;;;;;;;;;;14.40;51.50;;;;;;5075187;28;20250;-64
2022/03/08 13:35:47;;;;;;;;;;;14.90;50.70;;;;;;5094573;28;19915;-67
2022/03/08 13:38:14;;;;;;;;;;;14.10;51.30;;;;;;5077765;28;19909;-67
2022/03/08 13:40:40;;;;;;;;;;;15.40;50.80;;;;;;5076212;28;20040;-64
2022/03/08 13:43:06;;;;;;;;;;;15.00;50.20;;;;;;5095078;28;19912;-69
2022/03/08 13:45:32;;;;;;;;;;;14.30;50.80;;;;;;5077196;28;19915;-65
2022/03/08 13:47:59;;;;;;;;;;;14.00;50.50;;;;;;5095961;28;20180;-67
2022/03/08 13:50:25;;;;;;;;;;;14.60;50.70;;;;;;5075982;28;19923;-65
2022/03/08 13:52:55;;;;;;;;;;;14.90;49.90;;;;;;5076811;28;19919;-66
2022/03/08 13:55:26;;;;;;;;;;;13.80;50.70;;;;;;5094537;28;20373;-64
2022/03/08 13:58:12;;;;;;;;;;;14.10;50.90;;;;;;5095884;28;19919;-68
2022/03/08 14:00:38;;;;;;;;;;;14.30;49.70;;;;;;5077221;28;19996;-64
2022/03/08 14:03:04;;;;;;;;;;;13.50;50.30;;;;;;5095593;28;19947;-66
2022/03/08 14:05:31;;;;;;;;;;;13.10;50.90;;;;;;5094747;28;20118;-68
2022/03/08 14:07:58;;;;;;;;;;;14.30;50.50;;;;;;5097146;28;20285;-65
2022/03/08 14:10:24;;;;;;;;;;;14.70;49.80;;;;;;5092988;28;20258;-64
2022/03/08 14:12:50;;;;;;;;;;;15.30;49.00;;;;;;5073901;28;19991;-64
2022/03/08 14:15:17;;;;;;;;;;;15.10;49.00;;;;;;5093439;28;19912;-65
2022/03/08 14:18:03;;;;;;;;;;;14.10;49.90;;;;;;5088114;28;20250;-66
2022/03/08 14:20:35;;;;;;;;;;;14.30;50.30;;;;;;5070681;28;20361;-65
2022/03/08 14:23:03;;;;;;;;;;;14.10;49.80;;;;;;5080105;28;20417;-65
2022/03/08 14:25:28;;;;;;;;;;;14.60;49.60;;;;;;5053898;28;19924;-65
2022/03/08 14:27:54;;;;;;;;;;;15.20;48.80;;;;;;5089765;28;19912;-66